createdAt,value
2022-09-12T00:02:19.032Z,10.05
2022-09-12T00:04:46.177Z,9.90
2022-09-12T00:07:13.321Z,11.45
2022-09-12T00:09:40.516Z,10.90
2022-09-12T00:12:07.870Z,8.68
2022-09-12T00:14:35.815Z,19.75
2022-09-12T00:17:02.828Z,11.48
2022-09-12T00:19:31.061Z,11.20
2022-09-12T00:21:58.015Z,8.65
2022-09-12T00:24:25.138Z,11.98
2022-09-12T00:26:52.621Z,12.25
2022-09-12T00:29:21.840Z,14.23
2022-09-12T00:31:49.389Z,10.82
2022-09-12T00:34:17.175Z,15.25
2022-09-12T00:36:44.367Z,11.70
2022-09-12T00:39:17.144Z,9.25
2022-09-12T00:41:44.933Z,8.20
2022-09-12T00:44:24.618Z,8.05
2022-09-12T00:46:54.788Z,9.95
2022-09-12T00:49:29.740Z,7.28
2022-09-12T00:52:08.646Z,10.10
2022-09-12T00:54:53.031Z,11.90
2022-09-12T00:57:22.815Z,8.18
2022-09-12T00:59:53.910Z,12.35
2022-09-12T01:02:22.058Z,10.50
2022-09-12T01:04:49.674Z,7.95
2022-09-12T01:07:16.833Z,11.18
2022-09-12T01:09:45.658Z,8.13
2022-09-12T01:12:15.962Z,10.77
2022-09-12T01:14:43.426Z,9.32
2022-09-12T01:17:15.009Z,8.27
2022-09-12T01:20:20.652Z,9.00
2022-09-12T01:23:06.242Z,7.43
2022-09-12T01:25:44.978Z,6.95
2022-09-12T01:28:23.321Z,8.70
2022-09-12T01:31:13.438Z,7.97
2022-09-12T01:34:08.420Z,9.20
2022-09-12T01:36:54.583Z,9.35
2022-09-12T01:39:24.495Z,8.02
2022-09-12T01:42:31.493Z,7.10
2022-09-12T01:45:03.123Z,9.82
2022-09-12T01:47:40.121Z,9.20
2022-09-12T01:50:15.411Z,8.18
2022-09-12T01:52:49.517Z,8.68
2022-09-12T01:55:46.363Z,11.75
2022-09-12T01:58:19.518Z,11.52
2022-09-12T02:00:57.139Z,8.25
2022-09-12T02:03:29.999Z,7.93
2022-09-12T02:06:04.306Z,8.30
2022-09-12T02:08:57.833Z,10.80
2022-09-12T02:11:25.571Z,8.77
2022-09-12T02:14:09.981Z,8.23
2022-09-12T02:16:48.499Z,8.15
2022-09-12T02:19:22.357Z,10.50
2022-09-12T02:22:00.611Z,6.35
2022-09-12T02:24:36.852Z,8.10
2022-09-12T02:27:16.744Z,6.15
2022-09-12T02:29:45.064Z,8.30
2022-09-12T02:32:34.675Z,10.85
2022-09-12T02:35:10.752Z,5.65
2022-09-12T02:37:52.471Z,5.20
2022-09-12T02:40:19.786Z,4.05
2022-09-12T02:42:46.877Z,3.72
2022-09-12T02:45:14.121Z,3.97
2022-09-12T02:47:49.722Z,6.30
2022-09-12T02:50:17.421Z,7.13
2022-09-12T02:52:45.227Z,4.70
2022-09-12T02:55:13.787Z,5.25
2022-09-12T02:57:40.869Z,7.47
2022-09-12T03:00:08.961Z,8.82
2022-09-12T03:02:47.622Z,6.90
2022-09-12T03:05:34.996Z,7.80
2022-09-12T03:08:38.109Z,8.45
2022-09-12T03:11:42.758Z,8.55
2022-09-12T03:14:19.534Z,7.88
2022-09-12T03:17:10.325Z,4.95
2022-09-12T03:20:02.466Z,7.38
2022-09-12T03:22:42.295Z,8.43
2022-09-12T03:25:19.011Z,5.70
2022-09-12T03:28:07.567Z,6.75
2022-09-12T03:30:42.648Z,7.63
2022-09-12T03:33:17.756Z,6.53
2022-09-12T03:35:46.530Z,7.57
2022-09-12T03:38:13.757Z,7.85
2022-09-12T03:40:41.379Z,8.85
2022-09-12T03:43:09.803Z,5.28
2022-09-12T03:45:37.531Z,8.15
2022-09-12T03:48:06.276Z,7.30
2022-09-12T03:50:33.886Z,13.48
2022-09-12T03:53:01.350Z,10.50
2022-09-12T03:55:28.493Z,25.75
2022-09-12T03:57:55.693Z,60.75
2022-09-12T04:00:22.973Z,69.57
2022-09-12T04:02:54.889Z,22.92
2022-09-12T04:05:21.859Z,32.42
2022-09-12T04:07:48.806Z,42.25
2022-09-12T04:10:16.331Z,13.70
2022-09-12T04:12:43.715Z,13.32
2022-09-12T04:15:11.299Z,23.45
2022-09-12T04:17:38.496Z,18.17
2022-09-12T04:20:06.362Z,27.15
2022-09-12T04:22:33.771Z,17.80
2022-09-12T04:25:00.760Z,14.27
2022-09-12T04:27:27.759Z,14.32
2022-09-12T04:29:55.756Z,19.95
2022-09-12T04:32:22.937Z,21.00
2022-09-12T04:34:49.972Z,27.40
2022-09-12T04:37:16.968Z,32.80
2022-09-12T04:39:43.956Z,34.42
2022-09-12T04:42:10.846Z,25.85
2022-09-12T04:44:37.832Z,19.27
2022-09-12T04:47:04.782Z,34.45
2022-09-12T04:49:31.940Z,38.80
2022-09-12T04:51:58.934Z,33.33
2022-09-12T04:54:26.081Z,13.00
2022-09-12T04:56:54.853Z,19.63
2022-09-12T04:59:22.631Z,27.55
2022-09-12T05:01:49.775Z,17.80
2022-09-12T05:04:17.045Z,22.83
2022-09-12T05:06:44.037Z,35.67
2022-09-12T05:09:12.404Z,13.63
2022-09-12T05:12:03.202Z,24.95
2022-09-12T05:14:28.648Z,20.52
2022-09-12T05:16:59.781Z,24.85
2022-09-12T05:19:27.495Z,57.20
2022-09-12T05:21:54.403Z,26.70
2022-09-12T05:24:21.318Z,77.57
2022-09-12T05:26:48.306Z,47.78
2022-09-12T05:29:15.269Z,42.05
2022-09-12T05:31:42.255Z,35.95
2022-09-12T05:34:10.225Z,39.00
2022-09-12T05:36:38.605Z,19.35
2022-09-12T05:39:06.102Z,18.13
2022-09-12T05:41:34.432Z,24.42
2022-09-12T05:44:07.647Z,9.10
2022-09-12T05:46:43.050Z,31.42
2022-09-12T05:49:12.714Z,32.03
2022-09-12T05:51:42.866Z,22.33
2022-09-12T05:54:12.075Z,15.75
2022-09-12T05:56:41.007Z,23.13
2022-09-12T05:59:14.849Z,10.70
2022-09-12T06:01:42.787Z,10.05
2022-09-12T06:04:10.658Z,18.35
2022-09-12T06:06:41.830Z,8.50
2022-09-12T06:09:09.257Z,7.25
2022-09-12T06:11:38.371Z,12.57
2022-09-12T06:14:05.572Z,17.70
2022-09-12T06:16:34.954Z,11.90
2022-09-12T06:19:07.522Z,12.83
2022-09-12T06:21:37.890Z,20.17
2022-09-12T06:26:31.928Z,14.80
2022-09-12T06:29:00.882Z,11.50
2022-09-12T06:31:33.220Z,10.45
2022-09-12T06:34:02.644Z,18.00
2022-09-12T06:36:32.276Z,8.30
2022-09-12T06:39:16.894Z,13.00
2022-09-12T06:41:45.036Z,9.48
2022-09-12T06:44:16.240Z,10.75
2022-09-12T06:46:44.433Z,9.07
2022-09-12T06:49:11.953Z,10.15
2022-09-12T06:51:39.171Z,20.25
2022-09-12T06:54:06.139Z,19.00
2022-09-12T06:56:33.065Z,8.68
2022-09-12T06:59:00.274Z,10.40
2022-09-12T07:01:29.236Z,13.35
2022-09-12T07:03:59.384Z,10.73
2022-09-12T07:06:37.856Z,5.93
2022-09-12T07:09:08.042Z,7.60
2022-09-12T07:11:37.053Z,16.23
2022-09-12T07:14:06.615Z,6.35
2022-09-12T07:16:35.676Z,22.58
2022-09-12T07:19:04.163Z,6.22
2022-09-12T07:21:31.123Z,9.85
2022-09-12T07:23:58.503Z,16.88
2022-09-12T07:26:29.666Z,7.25
2022-09-12T07:29:18.768Z,7.32
2022-09-12T07:31:45.328Z,9.38
2022-09-12T07:34:12.343Z,8.20
2022-09-12T07:36:39.299Z,7.88
2022-09-12T07:39:06.423Z,8.80
2022-09-12T07:41:36.359Z,17.08
2022-09-12T07:44:05.122Z,7.97
2022-09-12T07:46:32.503Z,12.68
2022-09-12T07:49:00.755Z,8.60
2022-09-12T07:51:29.527Z,7.65
2022-09-12T07:53:57.052Z,11.70
2022-09-12T07:56:29.434Z,7.43
2022-09-12T07:58:57.268Z,7.13
2022-09-12T08:01:24.730Z,7.43
2022-09-12T08:03:57.652Z,6.38
2022-09-12T08:06:26.271Z,6.35
2022-09-12T08:08:55.464Z,8.75
2022-09-12T08:11:23.466Z,8.93
2022-09-12T08:13:55.225Z,9.57
2022-09-12T08:16:25.150Z,6.65
2022-09-12T08:18:52.084Z,7.80
2022-09-12T08:21:21.349Z,6.53
2022-09-12T08:23:52.980Z,9.50
2022-09-12T08:26:19.919Z,7.30
2022-09-12T08:28:47.723Z,9.02
2022-09-12T08:31:16.778Z,10.10
2022-09-12T08:33:44.457Z,9.43
2022-09-12T08:36:17.307Z,6.97
2022-09-12T08:38:46.322Z,8.05
2022-09-12T08:41:19.440Z,10.38
2022-09-12T08:43:56.946Z,9.65
2022-09-12T08:46:33.119Z,11.40
2022-09-12T08:49:02.311Z,11.93
2022-09-12T08:51:31.223Z,10.38
2022-09-12T08:53:59.432Z,11.35
2022-09-12T08:56:31.758Z,9.43
2022-09-12T08:58:59.490Z,9.93
2022-09-12T09:01:38.504Z,9.63
2022-09-12T09:04:17.838Z,9.40
2022-09-12T09:07:11.809Z,8.88
2022-09-12T09:09:56.622Z,9.27
2022-09-12T09:13:04.678Z,10.73
2022-09-12T09:15:43.902Z,10.23
2022-09-12T09:18:28.845Z,11.10
2022-09-12T09:21:31.761Z,10.45
2022-09-12T09:24:05.939Z,13.07
2022-09-12T09:27:39.271Z,10.57
2022-09-12T09:30:04.699Z,11.45
2022-09-12T09:32:38.191Z,12.27
2022-09-12T09:35:19.139Z,11.23
2022-09-12T09:38:12.737Z,14.75
2022-09-12T09:40:48.562Z,11.32
2022-09-12T09:43:20.054Z,10.38
2022-09-12T09:45:47.986Z,16.67
2022-09-12T09:48:17.832Z,9.88
2022-09-12T09:50:49.078Z,12.30
2022-09-12T09:54:17.167Z,10.32
2022-09-12T09:56:44.566Z,13.95
2022-09-12T09:59:28.283Z,10.23
2022-09-12T10:01:57.597Z,12.23
2022-09-12T10:04:31.358Z,11.85
2022-09-12T10:07:01.139Z,7.63
2022-09-12T10:09:33.841Z,8.07
2022-09-12T10:12:19.999Z,7.28
2022-09-12T10:15:01.703Z,7.75
2022-09-12T10:17:50.717Z,5.80
2022-09-12T10:20:45.075Z,6.13
2022-09-12T10:23:37.618Z,7.38
2022-09-12T10:26:10.600Z,6.85
2022-09-12T10:28:45.172Z,5.22
2022-09-12T10:31:17.247Z,5.82
2022-09-12T10:33:53.850Z,6.35
2022-09-12T10:36:21.897Z,6.95
2022-09-12T10:38:55.388Z,4.13
2022-09-12T10:41:22.754Z,6.00
2022-09-12T10:43:50.278Z,4.95
2022-09-12T10:46:20.009Z,7.70
2022-09-12T10:48:49.340Z,5.35
2022-09-12T10:51:25.008Z,4.82
2022-09-12T10:54:00.485Z,5.45
2022-09-12T10:56:38.908Z,6.68
2022-09-12T10:59:27.783Z,5.25
2022-09-12T11:02:20.567Z,4.25
2022-09-12T11:05:11.741Z,6.07
2022-09-12T11:07:44.497Z,8.98
2022-09-12T11:10:19.775Z,3.92
2022-09-12T11:12:55.909Z,3.30
2022-09-12T11:15:34.866Z,4.93
2022-09-12T11:18:19.213Z,3.95
2022-09-12T11:21:17.811Z,5.78
2022-09-12T11:24:09.615Z,3.40
2022-09-12T11:27:07.357Z,3.63
2022-09-12T11:29:43.223Z,7.20
2022-09-12T11:32:37.911Z,6.60
2022-09-12T11:35:04.808Z,5.55
2022-09-12T11:37:46.854Z,3.22
2022-09-12T11:40:20.620Z,4.38
2022-09-12T11:42:51.412Z,2.85
2022-09-12T11:45:31.533Z,3.83
2022-09-12T11:48:04.377Z,2.17
2022-09-12T11:50:32.462Z,2.63
2022-09-12T11:53:12.541Z,5.75
2022-09-12T11:55:51.374Z,2.70
2022-09-12T11:58:21.891Z,6.55
2022-09-12T12:00:53.612Z,5.10
2022-09-12T12:03:47.822Z,4.57
2022-09-12T12:06:47.446Z,1.75
2022-09-12T12:09:14.927Z,1.83
2022-09-12T12:12:04.990Z,3.42
2022-09-12T12:14:43.769Z,2.45
2022-09-12T12:17:20.105Z,2.15
2022-09-12T12:19:56.425Z,2.55
2022-09-12T12:22:24.783Z,2.75
2022-09-12T12:24:54.780Z,3.03
2022-09-12T12:27:44.959Z,3.15
2022-09-12T12:30:30.408Z,2.25
2022-09-12T12:33:13.227Z,2.33
2022-09-12T12:35:46.361Z,2.40
2022-09-12T12:38:30.134Z,3.00
2022-09-12T12:41:18.650Z,4.00
2022-09-12T12:43:47.418Z,2.08
2022-09-12T12:46:19.904Z,4.95
2022-09-12T12:49:07.499Z,3.10
2022-09-12T12:51:45.533Z,2.17
2022-09-12T12:54:32.759Z,2.15
2022-09-12T12:57:31.038Z,3.03
2022-09-12T13:00:06.627Z,1.35
2022-09-12T13:02:38.559Z,1.70
2022-09-12T13:05:17.491Z,1.58
2022-09-12T13:07:45.093Z,1.83
2022-09-12T13:10:23.348Z,1.95
2022-09-12T13:12:52.043Z,1.63
2022-09-12T13:15:49.395Z,2.38
2022-09-12T13:18:28.555Z,1.55
2022-09-12T13:21:18.627Z,2.85
2022-09-12T13:26:26.852Z,5.82
2022-09-12T13:29:15.758Z,4.60
2022-09-12T13:31:47.254Z,3.72
2022-09-12T13:34:24.734Z,2.88
2022-09-12T13:36:51.600Z,2.42
2022-09-12T13:39:41.075Z,1.98
2022-09-12T13:42:45.077Z,3.55
2022-09-12T13:45:21.443Z,3.35
2022-09-12T13:48:02.076Z,3.67
2022-09-12T13:50:40.654Z,3.47
2022-09-12T13:53:20.947Z,3.15
2022-09-12T13:58:24.367Z,2.60
2022-09-12T14:01:06.010Z,3.05
2022-09-12T14:03:58.905Z,3.45
2022-09-12T14:06:27.814Z,2.88
2022-09-12T14:08:58.992Z,3.80
2022-09-12T14:11:31.049Z,3.90
2022-09-12T14:13:58.402Z,4.10
2022-09-12T14:16:29.229Z,5.13
2022-09-12T14:18:57.751Z,2.35
2022-09-12T14:21:34.192Z,4.80
2022-09-12T14:24:02.907Z,3.28
2022-09-12T14:26:34.620Z,2.58
2022-09-12T14:29:05.456Z,3.85
2022-09-12T14:31:36.593Z,5.25
2022-09-12T14:34:15.442Z,2.47
2022-09-12T14:36:47.074Z,3.13
2022-09-12T14:39:24.710Z,3.95
2022-09-12T14:41:59.916Z,2.15
2022-09-12T14:44:28.398Z,4.20
2022-09-12T14:46:56.569Z,3.13
2022-09-12T14:49:34.564Z,4.38
2022-09-12T14:52:05.902Z,2.70
2022-09-12T14:54:37.321Z,4.05
2022-09-12T14:57:19.319Z,1.67
2022-09-12T14:59:48.699Z,9.18
2022-09-12T15:02:28.427Z,3.78
2022-09-12T15:05:23.465Z,4.43
2022-09-12T15:07:50.726Z,2.88
2022-09-12T15:10:37.146Z,4.95
2022-09-12T15:13:28.130Z,2.70
2022-09-12T15:15:58.767Z,2.22
2022-09-12T15:18:29.532Z,2.67
2022-09-12T15:21:03.206Z,1.95
2022-09-12T15:23:32.224Z,3.40
2022-09-12T15:26:00.016Z,2.08
2022-09-12T15:28:27.385Z,2.50
2022-09-12T15:30:56.695Z,2.00
2022-09-12T15:33:25.363Z,2.00
2022-09-12T15:35:53.548Z,2.50
2022-09-12T15:38:25.629Z,2.78
2022-09-12T15:40:54.077Z,2.88
2022-09-12T15:43:22.633Z,2.38
2022-09-12T15:45:51.804Z,2.08
2022-09-12T15:48:20.622Z,2.85
2022-09-12T15:50:47.857Z,1.95
2022-09-12T15:53:16.367Z,3.75
2022-09-12T15:55:43.986Z,1.58
2022-09-12T15:58:11.495Z,2.15
2022-09-12T16:00:38.838Z,2.45
2022-09-12T16:03:06.484Z,4.65
2022-09-12T16:05:33.621Z,4.93
2022-09-12T16:08:00.546Z,3.28
2022-09-12T16:10:30.270Z,2.78
2022-09-12T16:12:58.059Z,2.25
2022-09-12T16:15:26.338Z,2.55
2022-09-12T16:17:53.667Z,3.17
2022-09-12T16:20:22.235Z,2.65
2022-09-12T16:22:49.379Z,2.17
2022-09-12T16:25:17.434Z,2.60
2022-09-12T16:27:45.032Z,2.78
2022-09-12T16:30:13.126Z,1.70
2022-09-12T16:32:40.314Z,2.08
2022-09-12T16:35:07.984Z,1.73
2022-09-12T16:37:35.478Z,2.40
2022-09-12T16:40:06.341Z,7.07
2022-09-12T16:42:33.601Z,10.38
2022-09-12T16:45:00.532Z,6.13
2022-09-12T16:47:27.466Z,2.55
2022-09-12T16:49:54.623Z,2.42
2022-09-12T16:52:21.496Z,1.83
2022-09-12T16:54:48.691Z,3.08
2022-09-12T16:57:16.205Z,2.47
2022-09-12T16:59:43.123Z,3.97
2022-09-12T17:02:14.606Z,2.75
2022-09-12T17:04:42.171Z,2.20
2022-09-12T17:07:09.247Z,2.58
2022-09-12T17:09:36.387Z,2.28
2022-09-12T17:12:03.537Z,4.95
2022-09-12T17:14:30.525Z,3.45
2022-09-12T17:16:57.554Z,2.95
2022-09-12T17:19:26.795Z,1.88
2022-09-12T17:21:55.027Z,1.55
2022-09-12T17:24:23.110Z,1.95
2022-09-12T17:26:50.617Z,1.70
2022-09-12T17:29:18.162Z,4.70
2022-09-12T17:31:45.745Z,2.30
2022-09-12T17:34:14.542Z,1.98
2022-09-12T17:36:44.561Z,6.20
2022-09-12T17:39:12.815Z,3.38
2022-09-12T17:41:41.840Z,3.00
2022-09-12T17:44:11.397Z,2.85
2022-09-12T17:46:39.487Z,2.10
2022-09-12T17:49:10.791Z,1.90
2022-09-12T17:51:37.895Z,6.05
2022-09-12T17:54:08.358Z,4.68
2022-09-12T17:56:37.206Z,13.52
2022-09-12T17:59:05.787Z,8.70
2022-09-12T18:01:52.162Z,2.15
2022-09-12T18:04:20.107Z,2.75
2022-09-12T18:06:50.255Z,4.82
2022-09-12T18:09:19.973Z,5.50
2022-09-12T18:11:48.251Z,2.13
2022-09-12T18:14:15.671Z,2.13
2022-09-12T18:16:43.264Z,2.10
2022-09-12T18:19:11.275Z,2.45
2022-09-12T18:21:38.879Z,2.65
2022-09-12T18:24:06.526Z,2.92
2022-09-12T18:26:34.064Z,5.43
2022-09-12T18:29:01.146Z,4.30
2022-09-12T18:31:30.126Z,3.13
2022-09-12T18:33:59.866Z,2.67
2022-09-12T18:36:27.604Z,2.80
2022-09-12T18:38:56.683Z,4.72
2022-09-12T18:41:24.975Z,8.40
2022-09-12T18:43:57.165Z,2.88
2022-09-12T18:46:25.800Z,2.63
2022-09-12T18:48:55.590Z,9.32
2022-09-12T18:51:25.416Z,3.47
2022-09-12T18:53:58.694Z,3.75
2022-09-12T18:56:28.875Z,4.13
2022-09-12T18:58:57.017Z,3.95
2022-09-12T19:01:29.590Z,5.45
2022-09-12T19:03:59.165Z,4.50
2022-09-12T19:06:28.606Z,6.25
2022-09-12T19:08:56.704Z,3.75
2022-09-12T19:11:25.245Z,3.08
2022-09-12T19:13:53.781Z,3.05
2022-09-12T19:16:23.647Z,4.05
2022-09-12T19:18:52.356Z,3.20
2022-09-12T19:21:24.788Z,3.38
2022-09-12T19:23:53.189Z,6.10
2022-09-12T19:26:21.726Z,4.68
2022-09-12T19:28:48.937Z,5.28
2022-09-12T19:31:21.737Z,4.78
2022-09-12T19:33:49.534Z,3.22
2022-09-12T19:36:41.333Z,4.00
2022-09-12T19:39:06.911Z,5.65
2022-09-12T19:41:34.490Z,2.92
2022-09-12T19:44:01.698Z,2.40
2022-09-12T19:46:28.728Z,4.03
2022-09-12T19:48:55.860Z,3.72
2022-09-12T19:51:24.124Z,5.82
2022-09-12T19:53:51.651Z,4.90
2022-09-12T19:56:19.385Z,3.42
2022-09-12T19:58:52.037Z,2.90
2022-09-12T20:01:30.126Z,2.92
2022-09-12T20:03:58.306Z,3.05
2022-09-12T20:06:26.434Z,3.25
2022-09-12T20:08:53.835Z,7.68
2022-09-12T20:11:23.815Z,2.50
2022-09-12T20:13:51.382Z,5.35
2022-09-12T20:16:25.315Z,4.35
2022-09-12T20:19:03.864Z,3.20
2022-09-12T20:21:32.773Z,4.88
2022-09-12T20:24:05.077Z,5.03
2022-09-12T20:26:33.171Z,5.45
2022-09-12T20:29:00.428Z,3.47
2022-09-12T20:31:27.985Z,3.53
2022-09-12T20:33:55.187Z,4.05
2022-09-12T20:36:22.800Z,5.25
2022-09-12T20:38:56.917Z,5.40
2022-09-12T20:41:24.932Z,5.53
2022-09-12T20:43:55.869Z,6.60
2022-09-12T20:46:24.013Z,4.45
2022-09-12T20:48:51.811Z,6.63
2022-09-12T20:51:20.087Z,4.50
2022-09-12T20:53:47.972Z,4.05
2022-09-12T20:56:15.314Z,4.47
2022-09-12T20:58:44.266Z,7.88
2022-09-12T21:01:13.665Z,7.07
2022-09-12T21:03:44.689Z,5.22
2022-09-12T21:06:13.264Z,5.57
2022-09-12T21:08:40.816Z,8.15
2022-09-12T21:11:07.823Z,4.45
2022-09-12T21:13:35.296Z,6.88
2022-09-12T21:16:05.699Z,4.97
2022-09-12T21:18:33.690Z,5.05
2022-09-12T21:21:01.011Z,4.97
2022-09-12T21:23:28.609Z,4.32
2022-09-12T21:25:55.854Z,5.18
2022-09-12T21:28:22.791Z,8.20
2022-09-12T21:30:50.595Z,8.82
2022-09-12T21:33:19.590Z,6.85
2022-09-12T21:35:50.071Z,4.97
2022-09-12T21:38:18.379Z,5.63
2022-09-12T21:40:46.013Z,10.75
2022-09-12T21:43:13.812Z,26.63
2022-09-12T21:45:40.769Z,4.22
2022-09-12T21:48:07.730Z,6.88
2022-09-12T21:50:34.958Z,5.68
2022-09-12T21:53:01.955Z,4.82
2022-09-12T21:55:29.303Z,4.70
2022-09-12T21:57:56.515Z,9.20
2022-09-12T22:00:24.031Z,6.07
2022-09-12T22:02:51.069Z,8.45
2022-09-12T22:05:20.577Z,5.15
2022-09-12T22:07:47.805Z,8.48
2022-09-12T22:10:15.219Z,5.57
2022-09-12T22:12:46.031Z,5.60
2022-09-12T22:18:01.877Z,5.70
2022-09-12T22:20:29.155Z,6.20
2022-09-12T22:23:14.732Z,4.82
2022-09-12T22:25:41.826Z,9.98
2022-09-12T22:28:09.310Z,4.97
2022-09-12T22:30:36.403Z,5.53
2022-09-12T22:33:03.381Z,5.80
2022-09-12T22:35:30.989Z,7.43
2022-09-12T22:37:58.273Z,5.70
2022-09-12T22:40:25.409Z,11.35
2022-09-12T22:42:53.153Z,4.35
2022-09-12T22:45:20.121Z,10.27
2022-09-12T22:47:47.280Z,5.20
2022-09-12T22:50:14.571Z,5.30
2022-09-12T22:52:41.804Z,6.70
2022-09-12T22:55:09.932Z,7.78
2022-09-12T22:57:37.832Z,4.88
2022-09-12T23:00:10.428Z,5.35
2022-09-12T23:02:37.991Z,4.22
2022-09-12T23:05:06.146Z,8.07
2022-09-12T23:07:33.586Z,6.65
2022-09-12T23:10:00.674Z,6.38
2022-09-12T23:12:27.613Z,4.45
2022-09-12T23:14:54.617Z,5.70
2022-09-12T23:17:21.540Z,4.90
2022-09-12T23:19:48.493Z,8.00
2022-09-12T23:22:15.734Z,5.30
2022-09-12T23:24:42.617Z,8.35
2022-09-12T23:27:09.658Z,5.50
2022-09-12T23:29:36.613Z,4.78
2022-09-12T23:32:04.507Z,4.97
2022-09-12T23:34:31.406Z,3.83
2022-09-12T23:36:58.383Z,5.00
2022-09-12T23:39:25.236Z,6.53
2022-09-12T23:41:52.241Z,6.82
2022-09-12T23:44:19.182Z,7.60
2022-09-12T23:46:46.151Z,5.00
2022-09-12T23:49:13.119Z,19.38
2022-09-12T23:51:40.053Z,6.35
2022-09-12T23:54:07.002Z,5.55
2022-09-12T23:56:33.990Z,5.32
2022-09-12T23:59:00.874Z,5.72
